Tipp, Ohio
Current Conditions -  °F | °C
As of 2:56 PM on Thursday 23 Oct 2014 (Local Time) from KDAY Reporting Station
Scattered Clouds Scattered Clouds  
Wind Chill: 61°   Ceiling: Unl
Heat Index: 61°   Visibility: 10mi
Dew Point: 41°   Wind: 0mph
Humidity: 48%   Direction: NA
Pressure: 30.18"   Gusts: NA
Location:  39.9332°N, 84.1192°W
Report Text: KDAY 231856Z 00000KT 10SM SCT250 16/05 A3018 RMK AO2 SLP221 T01610050
Loading
Personal Weather Stations






























Interactive Weather Map
Tropical Storm Tracking
New forecast layout! Learn more

10-Day Weather Forecast

Advertisements
Track Severe Weather on mobile